Time;durP1;ratioP1;P1;durP2;ratioP2;P2;SDS_P1;SDS_P2;PMS_P1;PMS_P2;Temp;Humidity;BMP_temperature;BMP_pressure;BME280_temperature;BME280_humidity;BME280_pressure;Samples;Min_cycle;Max_cycle;Signal;HPM_P1;HPM_P2
2022/09/20 00:01:31;;;;;;;4.70;3.65;;;;;;;10.28;82.32;99075.07;1784907;80;21682;-79
2022/09/20 00:03:59;;;;;;;5.17;3.33;;;;;;;10.30;82.89;99077.17;1784550;80;21021;-79
2022/09/20 00:06:30;;;;;;;4.37;3.80;;;;;;;10.32;83.28;99071.45;1784602;80;20994;-79
2022/09/20 00:09:00;;;;;;;4.25;3.62;;;;;;;10.36;83.71;99077.44;1785022;80;21547;-80
2022/09/20 00:11:29;;;;;;;4.67;4.05;;;;;;;10.36;84.12;99067.76;1784591;80;21164;-80
2022/09/20 00:13:57;;;;;;;5.90;4.30;;;;;;;10.35;84.22;99068.67;1784779;80;21010;-80
2022/09/20 00:16:30;;;;;;;5.25;3.72;;;;;;;10.35;84.10;99068.67;1784535;80;21077;-80
2022/09/20 00:18:57;;;;;;;5.72;4.30;;;;;;;10.37;84.33;99068.61;1784847;80;21069;-80
2022/09/20 00:21:27;;;;;;;5.50;4.33;;;;;;;10.36;84.42;99071.70;1784442;80;21046;-79
2022/09/20 00:23:56;;;;;;;5.90;4.75;;;;;;;10.36;84.41;99070.86;1784609;80;21631;-79
2022/09/20 00:26:23;;;;;;;5.62;3.67;;;;;;;10.36;84.45;99070.86;1784787;80;21132;-80
2022/09/20 00:28:50;;;;;;;8.83;3.47;;;;;;;10.35;84.60;99069.13;1784511;80;20983;-79
2022/09/20 00:31:17;;;;;;;5.75;3.00;;;;;;;10.32;84.69;99071.45;1785331;80;21883;-80
2022/09/20 00:36:15;;;;;;;7.35;3.80;;;;;;;10.34;84.00;99067.41;1721808;80;21561;-79
2022/09/20 00:38:41;;;;;;;22.80;13.70;;;;;;;10.34;83.65;99063.03;1784865;80;21108;-80
2022/09/20 00:41:08;;;;;;;10.85;7.03;;;;;;;10.34;83.29;99060.84;1784551;80;20990;-80
2022/09/20 00:43:40;;;;;;;8.68;4.97;;;;;;;10.31;83.29;99064.44;1785348;80;20974;-79
2022/09/20 00:46:21;;;;;;;6.37;4.95;;;;;;;10.30;83.21;99061.86;1784902;80;21113;-78
2022/09/20 00:48:52;;;;;;;7.75;4.03;;;;;;;10.27;83.47;99061.55;1781042;80;22167;-79
2022/09/20 00:51:27;;;;;;;6.37;4.55;;;;;;;10.24;83.95;99064.30;1784103;80;21137;-79
2022/09/20 00:53:56;;;;;;;5.40;4.40;;;;;;;10.20;84.08;99063.56;1779644;80;21023;-80
2022/09/20 00:56:27;;;;;;;12.60;4.28;;;;;;;10.19;84.15;99062.31;1779889;80;21026;-79
2022/09/20 00:59:05;;;;;;;8.90;4.10;;;;;;;10.17;84.23;99065.44;1780050;80;22194;-78
2022/09/20 01:01:32;;;;;;;12.33;4.35;;;;;;;10.12;84.43;99064.77;1779991;80;21441;-79
2022/09/20 01:03:58;;;;;;;5.90;3.98;;;;;;;10.09;84.51;99066.23;1780010;80;21560;-79
2022/09/20 01:06:25;;;;;;;7.58;4.50;;;;;;;10.04;84.57;99071.20;1779615;80;21887;-79
2022/09/20 01:08:51;;;;;;;9.55;4.25;;;;;;;10.01;84.63;99062.58;1779684;80;22101;-78
2022/09/20 01:11:18;;;;;;;19.42;4.67;;;;;;;9.98;84.46;99060.06;1779753;80;20986;-79
2022/09/20 01:13:45;;;;;;;18.27;5.42;;;;;;;9.96;84.24;99068.48;1779821;80;21873;-79
2022/09/20 01:16:11;;;;;;;12.45;5.75;;;;;;;9.92;84.02;99064.23;1779938;80;21726;-79
2022/09/20 01:18:38;;;;;;;8.90;6.05;;;;;;;9.86;84.01;99067.97;1786037;80;21481;-79
2022/09/20 01:21:04;;;;;;;7.75;5.42;;;;;;;9.83;84.03;99062.83;1780209;80;21611;-80
2022/09/20 01:23:52;;;;;;;16.75;5.35;;;;;;;9.80;84.14;99060.31;1779485;80;21375;-79
2022/09/20 01:26:30;;;;;;;10.95;5.25;;;;;;;9.80;84.36;99065.57;1779742;80;21778;-79
2022/09/20 01:29:32;;;;;;;7.50;4.70;;;;;;;9.78;84.66;99060.84;1780043;80;21069;-80
2022/09/20 01:32:00;;;;;;;13.80;5.25;;;;;;;9.74;84.87;99061.89;1779908;80;21120;-79
2022/09/20 01:34:32;;;;;;;9.13;5.33;;;;;;;9.72;85.09;99061.09;1780046;80;21062;-79
2022/09/20 01:37:22;;;;;;;5.78;4.83;;;;;;;9.71;85.01;99063.31;1779745;80;21619;-80
2022/09/20 01:40:10;;;;;;;7.62;5.58;;;;;;;9.66;85.00;99064.33;1779974;80;21108;-79
2022/09/20 01:42:40;;;;;;;7.03;4.70;;;;;;;9.60;85.14;99069.84;1779631;80;21109;-79
2022/09/20 01:45:24;;;;;;;7.53;4.00;;;;;;;9.57;85.37;99066.01;1780263;80;21156;-79
2022/09/20 01:48:22;;;;;;;4.80;4.03;;;;;;;9.55;85.50;99069.16;1775272;80;21069;-81
2022/09/20 01:51:06;;;;;;;5.80;4.15;;;;;;;9.56;85.64;99068.22;1781581;80;21129;-80
2022/09/20 01:53:40;;;;;;;5.62;4.28;;;;;;;9.53;85.78;99066.17;1784522;80;20991;-80
2022/09/20 01:57:01;;;;;;;27.17;4.67;;;;;;;9.51;85.94;99064.91;1783801;80;21029;-80
2022/09/20 02:00:03;;;;;;;8.78;4.37;;;;;;;9.49;86.13;99065.44;1784587;80;20986;-78
2022/09/20 02:03:00;;;;;;;4.75;3.95;;;;;;;9.48;86.46;99062.40;1777568;80;21038;-78
2022/09/20 02:05:59;;;;;;;7.93;4.07;;;;;;;9.45;86.65;99062.54;1784985;80;20982;-79
2022/09/20 02:08:51;;;;;;;6.60;3.90;;;;;;;9.41;86.92;99051.27;1783388;80;21194;-80
2022/09/20 02:11:39;;;;;;;7.08;3.83;;;;;;;9.38;87.17;99047.91;1784797;80;21540;-78
2022/09/20 02:14:35;;;;;;;6.42;4.03;;;;;;;9.38;87.30;99050.53;1784407;80;21021;-79
2022/09/20 02:17:39;;;;;;;6.50;4.12;;;;;;;9.38;87.32;99051.84;1784696;80;21120;-78
2022/09/20 02:20:57;;;;;;;5.15;3.62;;;;;;;9.35;87.19;99059.39;1784358;80;21065;-79
2022/09/20 02:23:41;;;;;;;12.82;3.70;;;;;;;9.28;87.07;99065.33;1784671;80;22755;-80
2022/09/20 02:26:37;;;;;;;6.62;3.47;;;;;;;9.23;86.97;99058.08;1784563;80;20991;-80
2022/09/20 02:29:46;;;;;;;6.75;3.98;;;;;;;9.18;86.96;99061.33;1784579;80;20986;-80
2022/09/20 02:32:27;;;;;;;5.72;3.42;;;;;;;9.11;87.02;99054.13;1784496;80;21018;-79
2022/09/20 02:35:19;;;;;;;6.10;3.60;;;;;;;9.06;86.87;99051.25;1784236;80;21010;-80
2022/09/20 02:38:01;;;;;;;4.92;3.58;;;;;;;9.02;86.74;99053.59;1784908;80;21587;-80
2022/09/20 02:41:07;;;;;;;12.40;4.35;;;;;;;8.99;86.70;99055.86;1784329;80;21517;-80
2022/09/20 02:43:52;;;;;;;5.30;3.67;;;;;;;8.98;86.77;99062.47;1784781;80;21061;-80
2022/09/20 02:46:45;;;;;;;4.67;3.87;;;;;;;8.93;86.37;99063.97;1785250;80;21191;-80
2022/09/20 02:49:53;;;;;;;10.63;3.65;;;;;;;8.89;86.26;99055.35;1785010;80;21018;-80
2022/09/20 02:52:50;;;;;;;10.70;3.87;;;;;;;8.89;86.24;99060.59;1777577;80;21775;-80
2022/09/20 02:55:24;;;;;;;10.18;3.80;;;;;;;8.85;86.12;99068.16;1776448;80;20975;-80
2022/09/20 02:58:21;;;;;;;6.50;3.20;;;;;;;8.81;86.10;99063.06;1776410;80;21620;-81
2022/09/20 03:01:08;;;;;;;5.80;3.10;;;;;;;8.78;86.24;99055.33;1776382;80;21065;-81
2022/09/20 03:04:08;;;;;;;3.75;3.35;;;;;;;8.75;86.52;99056.27;1776470;80;21575;-80
2022/09/20 03:07:08;;;;;;;4.85;3.37;;;;;;;8.73;86.77;99064.19;1776468;80;21762;-80
2022/09/20 03:09:46;;;;;;;4.85;3.50;;;;;;;8.70;87.23;99065.60;1776321;80;21336;-80
2022/09/20 03:13:01;;;;;;;8.53;3.50;;;;;;;8.70;87.59;99070.00;1776823;80;21014;-80
2022/09/20 03:16:11;;;;;;;7.30;4.03;;;;;;;8.72;87.77;99067.74;1776397;80;21022;-80
2022/09/20 03:18:44;;;;;;;3.80;3.45;;;;;;;8.72;87.95;99072.11;1776266;80;21092;-80
2022/09/20 03:21:34;;;;;;;11.33;3.87;;;;;;;8.71;88.33;99075.66;1732226;80;21314;-79
2022/09/20 03:24:30;;;;;;;9.33;4.15;;;;;;;8.68;88.63;99073.98;1776624;80;21649;-80
2022/09/20 03:27:38;;;;;;;8.10;4.12;;;;;;;8.70;88.90;99073.94;1776441;80;21026;-80
2022/09/20 03:30:16;;;;;;;5.95;4.12;;;;;;;8.69;89.09;99078.77;1776672;80;21152;-80
2022/09/20 03:33:04;;;;;;;9.00;4.25;;;;;;;8.69;89.26;99080.08;1774711;80;22349;-80
2022/09/20 03:36:03;;;;;;;5.55;3.50;;;;;;;8.69;89.36;99082.70;1776150;80;21603;-79
2022/09/20 03:38:53;;;;;;;5.50;3.83;;;;;;;8.70;89.43;99087.05;1776626;80;20999;-80
2022/09/20 03:41:40;;;;;;;8.08;4.40;;;;;;;8.70;89.65;99089.67;1776532;80;21656;-79
2022/09/20 03:44:50;;;;;;;6.03;4.42;;;;;;;8.69;89.89;99090.56;1776628;80;21014;-80
2022/09/20 03:47:53;;;;;;;8.33;4.50;;;;;;;8.66;89.99;99088.92;1776450;80;21572;-81
2022/09/20 03:50:46;;;;;;;8.93;4.87;;;;;;;8.70;90.10;99090.98;1776610;80;21271;-80
2022/09/20 03:53:46;;;;;;;10.90;4.22;;;;;;;8.70;90.19;99090.98;1730957;82;21012;-80
2022/09/20 03:56:39;;;;;;;5.15;3.83;;;;;;;8.70;90.23;99090.98;1737293;82;21074;-80
2022/09/20 03:59:47;;;;;;;5.05;3.83;;;;;;;8.70;90.29;99096.23;1706735;83;21108;-81
2022/09/20 04:02:35;;;;;;;6.75;4.35;;;;;;;8.73;90.34;99097.45;1776419;80;21006;-79
2022/09/20 04:05:10;;;;;;;7.58;4.70;;;;;;;8.73;90.48;99093.51;1776999;80;21102;-80
2022/09/20 04:07:48;;;;;;;7.67;4.55;;;;;;;8.73;90.68;99096.13;1776339;80;20998;-79
2022/09/20 04:10:39;;;;;;;7.60;4.67;;;;;;;8.73;90.83;99093.51;1776387;80;21035;-80
2022/09/20 04:13:23;;;;;;;11.10;4.85;;;;;;;8.75;90.88;99091.69;1776629;80;21082;-80
2022/09/20 04:16:38;;;;;;;9.85;5.28;;;;;;;8.76;90.95;99090.79;1776734;80;21027;-80
2022/09/20 04:19:22;;;;;;;10.25;5.53;;;;;;;8.75;91.15;99092.99;1776576;80;21786;-80
2022/09/20 04:21:56;;;;;;;11.38;5.45;;;;;;;8.77;91.28;99087.23;1774700;80;21054;-81
2022/09/20 04:24:53;;;;;;;8.13;5.28;;;;;;;8.79;91.34;99080.16;1776623;80;21324;-80
2022/09/20 04:27:49;;;;;;;10.25;5.40;;;;;;;8.80;91.51;99088.45;1776289;80;21042;-80
2022/09/20 04:30:29;;;;;;;10.15;6.12;;;;;;;8.80;91.65;99091.07;1731567;82;21064;-80
2022/09/20 04:33:20;;;;;;;11.73;5.83;;;;;;;8.84;91.66;99095.32;1731153;82;21136;-80
2022/09/20 04:36:27;;;;;;;13.13;5.47;;;;;;;8.87;91.62;99091.25;1739417;82;22032;-78
2022/09/20 04:39:02;;;;;;;12.50;5.95;;;;;;;8.89;91.67;99093.83;1740609;82;21110;-79
2022/09/20 04:42:00;;;;;;;11.75;6.00;;;;;;;8.88;91.72;99095.60;1739402;82;21074;-79
2022/09/20 04:44:54;;;;;;;10.38;6.55;;;;;;;8.91;91.83;99103.38;1739757;82;21086;-79
2022/09/20 04:47:55;;;;;;;12.90;6.55;;;;;;;8.96;91.94;99102.34;1739414;82;21747;-78
2022/09/20 04:50:49;;;;;;;12.13;7.05;;;;;;;9.00;92.03;99107.91;1739628;82;21003;-80
2022/09/20 04:53:30;;;;;;;12.05;6.62;;;;;;;8.99;92.27;99112.27;1740166;81;21082;-79
2022/09/20 04:56:15;;;;;;;16.97;6.62;;;;;;;8.95;92.49;99113.77;1740044;82;21619;-80
2022/09/20 04:59:09;;;;;;;10.80;6.90;;;;;;;8.92;92.85;99111.63;1698550;82;20995;-81
2022/09/20 05:02:03;;;;;;;7.67;5.83;;;;;;;8.95;92.84;99109.83;1740080;82;21122;-80
2022/09/20 05:05:01;;;;;;;9.83;5.97;;;;;;;9.00;92.73;99113.16;1739202;82;20999;-79
2022/09/20 05:08:04;;;;;;;8.10;5.20;;;;;;;9.05;92.77;99110.76;1739861;82;21596;-80
2022/09/20 05:10:51;;;;;;;10.58;4.53;;;;;;;9.15;93.27;99109.14;1739686;82;22227;-79
2022/09/20 05:14:01;;;;;;;5.05;4.55;;;;;;;9.20;93.40;99107.20;1740072;82;21143;-79
2022/09/20 05:16:45;;;;;;;5.70;4.12;;;;;;;9.25;93.61;99113.99;1732185;82;21122;-80
2022/09/20 05:19:36;;;;;;;6.95;4.40;;;;;;;9.33;93.74;99111.55;1739766;82;21046;-80
2022/09/20 05:22:47;;;;;;;6.53;4.67;;;;;;;9.40;93.80;99113.06;1739693;82;21014;-79
2022/09/20 05:26:00;;;;;;;9.05;3.62;;;;;;;9.45;93.85;99103.24;1740117;82;21101;-80
2022/09/20 05:28:48;;;;;;;6.22;3.35;;;;;;;9.51;93.98;99105.62;1739848;82;21074;-79
2022/09/20 05:31:23;;;;;;;7.35;3.20;;;;;;;9.55;93.85;99103.73;1739911;82;21104;-79
2022/09/20 05:33:55;;;;;;;8.85;3.40;;;;;;;9.60;93.94;99103.98;1739822;82;21620;-79
2022/09/20 05:36:39;;;;;;;6.50;4.50;;;;;;;9.63;93.99;99097.74;1740005;82;21042;-78
2022/09/20 05:39:41;;;;;;;6.50;4.83;;;;;;;9.66;94.04;99101.11;1735873;82;21062;-79
2022/09/20 05:42:34;;;;;;;6.10;4.17;;;;;;;9.72;93.99;99105.77;1745468;82;21089;-79
2022/09/20 05:45:39;;;;;;;4.65;3.92;;;;;;;9.78;94.03;99103.73;1739936;82;21153;-79
2022/09/20 05:48:41;;;;;;;4.28;3.55;;;;;;;9.82;94.08;99101.87;1739750;82;21050;-79
2022/09/20 05:51:34;;;;;;;6.67;3.40;;;;;;;9.88;94.04;99105.55;1739490;82;21636;-79
2022/09/20 05:54:32;;;;;;;5.22;3.25;;;;;;;9.97;94.25;99102.59;1742105;82;21145;-79
2022/09/20 05:57:20;;;;;;;6.30;3.47;;;;;;;10.01;94.11;99098.91;1782137;80;21069;-80
2022/09/20 06:00:04;;;;;;;4.95;3.58;;;;;;;10.08;93.93;99102.63;1782292;80;21623;-80
2022/09/20 06:02:46;;;;;;;4.22;3.40;;;;;;;10.12;93.81;99101.57;1781106;80;21045;-79
2022/09/20 06:05:30;;;;;;;5.47;3.20;;;;;;;10.17;93.55;99100.92;1782253;80;20994;-79
2022/09/20 06:08:17;;;;;;;4.65;3.10;;;;;;;10.24;93.40;99099.79;1782153;80;21096;-79
2022/09/20 06:11:39;;;;;;;8.45;3.60;;;;;;;10.30;93.09;99104.78;1782452;80;21549;-79
2022/09/20 06:14:20;;;;;;;4.65;2.87;;;;;;;10.36;92.84;99107.67;1782250;80;21241;-79
2022/09/20 06:17:33;;;;;;;4.85;3.37;;;;;;;10.41;92.21;99103.93;1782284;80;21071;-80
2022/09/20 06:20:26;;;;;;;10.28;3.80;;;;;;;10.46;91.77;99105.53;1782349;80;22222;-78
2022/09/20 06:22:58;;;;;;;5.30;3.17;;;;;;;10.49;91.29;99101.44;1782173;80;21698;-79
2022/09/20 06:25:48;;;;;;;6.03;3.33;;;;;;;10.54;90.94;99100.79;1782259;80;21113;-79
2022/09/20 06:28:18;;;;;;;6.33;3.25;;;;;;;10.58;90.64;99102.39;1782255;80;22322;-79
2022/09/20 06:30:48;;;;;;;5.15;2.65;;;;;;;10.62;90.28;99100.02;1782201;80;21096;-80
2022/09/20 06:33:19;;;;;;;3.17;2.85;;;;;;;10.66;90.17;99106.88;1782092;80;21668;-79
2022/09/20 06:41:53;;;;;;;4.22;2.98;;;;;;;10.76;89.59;99096.83;1772148;80;21199;-79
2022/09/20 06:44:20;;;;;;;5.53;3.25;;;;;;;10.78;89.45;99102.41;1782260;80;21651;-79
2022/09/20 06:46:47;;;;;;;4.35;3.37;;;;;;;10.81;89.35;99099.25;1782020;80;21124;-79
2022/09/20 06:49:14;;;;;;;6.42;3.98;;;;;;;10.84;89.24;99097.34;1782211;80;21125;-79
2022/09/20 06:51:40;;;;;;;4.30;2.85;;;;;;;10.90;89.18;99104.14;1781878;79;21026;-79
2022/09/20 06:54:10;;;;;;;2.85;2.65;;;;;;;10.94;88.62;99102.63;1784650;80;21161;-79
2022/09/20 06:56:35;;;;;;;3.70;2.80;;;;;;;10.96;88.44;99098.59;1784664;80;21140;-79
2022/09/20 06:59:04;;;;;;;5.87;2.58;;;;;;;11.00;88.25;99101.50;1784867;80;21025;-79
2022/09/20 07:01:31;;;;;;;6.17;2.60;;;;;;;11.03;87.98;99099.19;1785025;80;20983;-79
2022/09/20 07:03:57;;;;;;;2.95;2.62;;;;;;;11.06;87.83;99092.03;1784869;80;21057;-80
2022/09/20 07:06:25;;;;;;;3.77;2.75;;;;;;;11.10;87.67;99090.97;1784500;80;21116;-80
2022/09/20 07:08:51;;;;;;;2.92;2.62;;;;;;;11.13;87.39;99086.04;1784729;80;21046;-81
2022/09/20 07:11:18;;;;;;;3.83;3.00;;;;;;;11.17;87.21;99087.60;1784872;80;21037;-79
2022/09/20 07:13:45;;;;;;;8.10;2.77;;;;;;;11.23;87.06;99088.66;1784956;80;21073;-79
2022/09/20 07:16:13;;;;;;;2.60;2.40;;;;;;;11.25;86.65;99084.64;1780089;80;20984;-79
2022/09/20 07:18:40;;;;;;;3.17;2.87;;;;;;;11.30;86.54;99090.56;1784855;80;21845;-79
2022/09/20 07:21:12;;;;;;;4.75;2.62;;;;;;;11.34;86.39;99086.85;1785341;80;21035;-80
2022/09/20 07:23:39;;;;;;;2.70;2.50;;;;;;;11.36;86.01;99082.84;1784790;80;21556;-80
2022/09/20 07:26:06;;;;;;;4.15;3.10;;;;;;;11.38;85.71;99081.86;1785250;80;21458;-80
2022/09/20 07:28:33;;;;;;;2.80;2.60;;;;;;;11.39;85.35;99080.07;1784737;80;21089;-80
2022/09/20 07:31:00;;;;;;;5.22;2.72;;;;;;;11.41;85.28;99076.42;1784520;80;21222;-80
2022/09/20 07:33:27;;;;;;;7.87;3.15;;;;;;;11.44;85.20;99071.50;1785057;80;22300;-80
2022/09/20 07:35:54;;;;;;;3.02;2.70;;;;;;;11.46;85.18;99089.40;1784529;80;21536;-80
2022/09/20 07:38:21;;;;;;;6.58;2.65;;;;;;;11.48;85.37;99092.38;1785151;80;21003;-78
2022/09/20 07:41:01;;;;;;;3.42;2.70;;;;;;;11.50;85.45;99089.20;1784743;80;21003;-78
2022/09/20 07:43:28;;;;;;;6.92;2.70;;;;;;;11.52;85.71;99089.13;1784591;80;21842;-80
2022/09/20 07:45:57;;;;;;;4.47;3.00;;;;;;;11.53;86.20;99096.97;1784638;80;20991;-80
2022/09/20 07:48:32;;;;;;;5.87;3.00;;;;;;;11.56;86.58;99099.06;1784706;80;21576;-81
2022/09/20 07:51:01;;;;;;;;;;;;;;;11.56;86.80;99099.06;1787361;80;21070;-81
2022/09/20 07:53:28;;;;;;;4.40;3.10;;;;;;;11.59;87.54;99092.34;1784768;80;20244;-81
2022/09/20 07:55:59;;;;;;;3.35;3.15;;;;;;;11.58;87.89;99094.58;1784423;80;22197;-80
2022/09/20 07:58:28;;;;;;;5.50;3.40;;;;;;;11.61;88.08;99095.75;1784840;80;20998;-81
2022/09/20 08:00:57;;;;;;;4.25;3.58;;;;;;;11.64;88.50;99099.58;1784827;80;21623;-80
2022/09/20 08:03:23;;;;;;;5.12;3.20;;;;;;;11.67;88.59;99098.12;1784536;80;20991;-80
2022/09/20 08:05:50;;;;;;;3.52;3.15;;;;;;;11.71;88.58;99104.95;1784688;80;21081;-81
2022/09/20 08:08:17;;;;;;;6.12;3.52;;;;;;;11.75;88.91;99099.95;1784572;80;21210;-80
2022/09/20 08:10:44;;;;;;;4.05;3.20;;;;;;;11.78;88.90;99103.73;1784584;80;20975;-79
2022/09/20 08:13:12;;;;;;;5.62;2.85;;;;;;;11.80;88.83;99096.63;1785085;80;21080;-81
2022/09/20 08:15:39;;;;;;;4.75;3.10;;;;;;;11.81;88.40;99090.89;1784140;80;21470;-80
2022/09/20 08:18:10;;;;;;;3.47;3.15;;;;;;;11.84;88.28;99092.91;1784916;80;21564;-81
2022/09/20 08:20:38;;;;;;;7.15;3.12;;;;;;;11.92;88.36;99089.97;1784833;80;21269;-80
2022/09/20 08:23:08;;;;;;;5.80;3.22;;;;;;;11.98;88.53;99094.93;1784621;80;21023;-80
2022/09/20 08:25:38;;;;;;;3.60;2.70;;;;;;;12.01;88.31;99096.11;1784958;80;21042;-79
2022/09/20 08:28:04;;;;;;;5.47;2.70;;;;;;;12.05;87.83;99099.01;1784974;80;22191;-80
2022/09/20 08:30:30;;;;;;;4.95;3.00;;;;;;;12.08;87.35;99100.63;1784845;80;21485;-80
2022/09/20 08:32:58;;;;;;;5.10;2.98;;;;;;;12.08;87.13;99104.58;1785040;80;21660;-80
2022/09/20 08:35:25;;;;;;;5.20;3.40;;;;;;;12.06;86.90;99102.48;1784451;80;21517;-80
2022/09/20 08:37:54;;;;;;;6.78;3.60;;;;;;;12.03;86.39;99105.27;1784522;80;21045;-80
2022/09/20 08:40:22;;;;;;;5.78;4.03;;;;;;;12.00;86.29;99101.45;1784806;80;21052;-80
2022/09/20 08:42:49;;;;;;;7.37;4.47;;;;;;;12.01;86.21;99095.27;1784553;80;21109;-80
2022/09/20 08:45:21;;;;;;;7.72;4.30;;;;;;;12.03;86.03;99092.08;1785144;80;21059;-80
2022/09/20 08:47:59;;;;;;;6.65;4.03;;;;;;;12.06;86.15;99091.94;1784609;80;21555;-80
2022/09/20 08:50:26;;;;;;;4.20;3.62;;;;;;;12.05;86.27;99090.22;1785080;80;22002;-79
2022/09/20 08:52:56;;;;;;;10.90;3.58;;;;;;;12.07;86.42;99089.70;1782229;80;21439;-80
2022/09/20 08:55:30;;;;;;;10.68;3.92;;;;;;;12.10;86.03;99096.13;1776248;80;21579;-80
2022/09/20 08:57:56;;;;;;;12.37;4.47;;;;;;;12.11;85.78;99094.37;1776588;80;21129;-80
2022/09/20 09:00:30;;;;;;;9.93;4.78;;;;;;;12.06;85.66;99088.83;1777017;80;21050;-81
2022/09/20 09:03:06;;;;;;;13.30;4.55;;;;;;;12.06;85.79;99090.62;1755471;80;20986;-80
2022/09/20 09:05:39;;;;;;;11.20;4.55;;;;;;;12.08;85.85;99094.03;1776814;80;21041;-80
2022/09/20 09:08:17;;;;;;;17.17;5.20;;;;;;;12.11;85.94;99089.94;1754977;80;21834;-79
2022/09/20 09:10:51;;;;;;;10.38;5.25;;;;;;;12.16;86.15;99089.25;1776436;80;21732;-81
2022/09/20 09:13:33;;;;;;;9.28;5.17;;;;;;;12.21;86.37;99087.25;1776404;80;21053;-81
2022/09/20 09:16:08;;;;;;;10.35;5.47;;;;;;;12.28;86.54;99089.59;1776829;80;21086;-80
2022/09/20 09:18:39;;;;;;;9.40;4.53;;;;;;;12.32;86.67;99083.23;1776355;80;21058;-80
2022/09/20 09:21:06;;;;;;;13.03;5.33;;;;;;;12.35;86.83;99081.77;1776998;80;21036;-80
2022/09/20 09:23:40;;;;;;;11.28;5.10;;;;;;;12.35;86.89;99085.72;1776443;80;21245;-81
2022/09/20 09:26:17;;;;;;;13.28;5.78;;;;;;;12.35;86.77;99082.61;1776566;80;21300;-80
2022/09/20 09:28:43;;;;;;;10.98;4.92;;;;;;;12.36;86.42;99086.13;1776602;80;21073;-79
2022/09/20 09:31:24;;;;;;;12.10;5.20;;;;;;;12.36;86.41;99083.49;1776411;80;21106;-81
2022/09/20 09:33:51;;;;;;;14.70;5.50;;;;;;;12.37;86.55;99086.50;1776956;80;21030;-79
2022/09/20 09:36:24;;;;;;;10.75;4.58;;;;;;;12.34;86.43;99086.64;1776356;80;21221;-79
2022/09/20 09:38:53;;;;;;;14.15;4.92;;;;;;;12.30;86.54;99078.50;1776915;80;21466;-79
2022/09/20 09:41:32;;;;;;;7.92;4.20;;;;;;;12.28;86.72;99085.64;1780484;80;20995;-78
2022/09/20 09:44:05;;;;;;;10.70;5.17;;;;;;;12.26;86.75;99082.60;1776601;80;20994;-78
2022/09/20 09:46:33;;;;;;;15.83;4.92;;;;;;;12.28;87.19;99080.37;1776643;80;21021;-78
2022/09/20 09:49:35;;;;;;;10.32;4.90;;;;;;;12.28;87.46;99076.41;1776493;80;21082;-79
2022/09/20 09:52:31;;;;;;;11.57;4.65;;;;;;;12.26;87.97;99076.01;1776437;80;21124;-79
2022/09/20 09:54:49;;;;;;;12.15;4.80;;;;;;;12.32;88.49;99077.95;1777623;80;21108;-79
2022/09/20 09:57:42;;;;;;;15.60;4.78;;;;;;;12.35;88.77;99073.38;1779619;80;21042;-78
2022/09/20 10:00:14;;;;;;;10.53;4.95;;;;;;;12.39;89.22;99079.36;1779585;80;21026;-78
2022/09/20 10:03:10;;;;;;;7.15;4.55;;;;;;;12.42;89.35;99068.66;1779571;80;21142;-79
2022/09/20 10:06:25;;;;;;;5.53;3.35;;;;;;;12.43;89.13;99063.78;1779927;80;21603;-80
2022/09/20 10:09:19;;;;;;;2.25;2.05;;;;;;;12.44;88.26;99068.14;1779591;80;21053;-78
2022/09/20 10:12:00;;;;;;;2.22;1.50;;;;;;;12.40;86.70;99066.56;1780025;80;21133;-79
2022/09/20 10:14:41;;;;;;;2.77;1.62;;;;;;;12.39;86.24;99056.93;1779824;80;22205;-79
2022/09/20 10:17:43;;;;;;;2.08;1.85;;;;;;;12.43;86.15;99055.87;1769944;80;21591;-79
2022/09/20 10:20:45;;;;;;;5.78;1.70;;;;;;;12.50;86.01;99056.41;1779478;80;21564;-80
2022/09/20 10:23:38;;;;;;;6.12;2.17;;;;;;;12.55;85.80;99056.56;1779995;80;21124;-80
2022/09/20 10:26:12;;;;;;;3.80;2.40;;;;;;;12.61;85.87;99059.38;1779673;80;20991;-78
2022/09/20 10:28:57;;;;;;;;;;;;;;;12.66;86.09;99058.68;1782746;80;21050;-79
2022/09/20 10:31:57;;;;;;;4.22;2.55;;;;;;;12.72;86.04;99057.50;1779642;80;21180;-79
2022/09/20 10:35:07;;;;;;;4.12;2.25;;;;;;;12.76;85.88;99055.08;1729326;82;21514;-79
2022/09/20 10:38:12;;;;;;;3.72;2.77;;;;;;;12.80;85.79;99054.02;1778796;80;21053;-80
2022/09/20 10:43:59;;;;;;;2.85;2.40;;;;;;;12.74;84.06;99043.75;1779731;80;21057;-79
2022/09/20 10:47:18;;;;;;;3.45;2.50;;;;;;;12.71;84.17;99041.27;1780054;80;21135;-80
2022/09/20 10:49:59;;;;;;;2.10;1.90;;;;;;;12.68;84.30;99037.02;1779711;80;21066;-79
2022/09/20 10:52:53;;;;;;;3.30;1.60;;;;;;;12.63;84.43;99040.36;1779975;80;21066;-79
2022/09/20 10:55:44;;;;;;;3.35;2.20;;;;;;;12.59;84.05;99031.75;1749166;82;21003;-79
2022/09/20 10:58:37;;;;;;;4.22;1.50;;;;;;;12.52;83.33;99026.36;1711204;83;21086;-79
2022/09/20 11:01:23;;;;;;;2.27;1.72;;;;;;;12.47;83.53;99026.22;1634990;87;21587;-78
2022/09/20 11:04:26;;;;;;;2.12;1.80;;;;;;;12.43;83.58;99029.48;1667314;84;21117;-79
2022/09/20 11:07:18;;;;;;;4.33;2.05;;;;;;;12.40;83.82;99019.08;1739250;81;21042;-78
2022/09/20 11:09:53;;;;;;;5.03;1.90;;;;;;;12.41;84.18;99007.61;1710970;83;21007;-77
2022/09/20 11:12:37;;;;;;;;;;;;;;;12.40;84.47;99008.52;1752020;82;21643;-77
2022/09/20 11:15:18;;;;;;;3.00;2.25;;;;;;;12.39;84.69;99012.08;1749725;82;21100;-79
2022/09/20 11:18:02;;;;;;;1.60;1.50;;;;;;;12.31;84.19;99010.31;1749822;82;21545;-79
2022/09/20 11:20:32;;;;;;;2.05;1.95;;;;;;;12.25;84.76;99016.73;1746845;82;21105;-79
2022/09/20 11:23:07;;;;;;;5.67;2.27;;;;;;;12.21;85.13;99012.08;1749461;82;21517;-78
2022/09/20 11:25:47;;;;;;;8.05;2.30;;;;;;;12.18;85.60;99021.93;1711491;83;20996;-78
2022/09/20 11:28:29;;;;;;;7.35;2.45;;;;;;;12.14;85.61;99019.91;1748539;82;21125;-78
2022/09/20 11:31:22;;;;;;;8.93;2.60;;;;;;;12.09;85.78;99020.60;1710845;83;27008;-78
2022/09/20 11:33:57;;;;;;;10.20;3.37;;;;;;;12.07;85.86;99020.67;1749307;82;21019;-78
2022/09/20 11:36:38;;;;;;;8.30;2.95;;;;;;;12.03;85.88;99024.84;1749959;82;21081;-79
2022/09/20 11:39:16;;;;;;;10.45;3.77;;;;;;;12.02;86.06;99029.72;1710820;83;21550;-78
2022/09/20 11:41:43;;;;;;;15.72;3.55;;;;;;;12.00;86.26;99028.95;1749515;82;21137;-78
2022/09/20 11:44:15;;;;;;;16.40;4.50;;;;;;;11.98;86.54;99024.22;1749695;82;21061;-79
2022/09/20 11:46:53;;;;;;;15.78;4.28;;;;;;;11.97;86.84;99019.86;1711368;83;21095;-78
2022/09/20 11:49:31;;;;;;;16.00;4.72;;;;;;;11.96;86.97;99023.44;1749559;82;21636;-80
2022/09/20 11:52:09;;;;;;;17.30;4.33;;;;;;;11.93;87.24;99018.31;1709025;83;21605;-79
2022/09/20 11:55:17;;;;;;;13.08;4.17;;;;;;;11.87;87.35;99013.69;1764946;79;21250;-79
2022/09/20 11:57:45;;;;;;;21.30;5.65;;;;;;;11.83;87.69;99014.75;1776492;80;21493;-79
2022/09/20 12:00:12;;;;;;;16.67;4.40;;;;;;;11.80;88.07;99005.70;1776273;80;21141;-78
2022/09/20 12:02:52;;;;;;;14.87;4.30;;;;;;;11.76;88.48;99014.66;1776703;80;21022;-79
2022/09/20 12:05:40;;;;;;;17.30;4.20;;;;;;;11.73;88.75;99006.89;1776303;80;20956;-79
2022/09/20 12:08:09;;;;;;;11.35;4.08;;;;;;;11.71;88.91;99008.75;1776401;80;21192;-78
2022/09/20 12:10:38;;;;;;;10.68;3.67;;;;;;;11.73;89.33;99010.84;1780440;80;21522;-79
2022/09/20 12:13:21;;;;;;;11.33;4.30;;;;;;;11.75;89.79;99014.29;1776348;80;21053;-79
2022/09/20 12:15:58;;;;;;;13.20;4.17;;;;;;;11.76;89.90;99015.14;1776319;80;21014;-78
2022/09/20 12:18:37;;;;;;;9.88;3.87;;;;;;;11.77;90.09;99009.80;1776180;80;20900;-78
2022/09/20 12:21:10;;;;;;;13.25;4.20;;;;;;;11.78;90.15;99014.12;1776198;80;22027;-78
2022/09/20 12:23:57;;;;;;;10.25;3.85;;;;;;;11.80;90.38;99011.41;1776417;80;21010;-79
2022/09/20 12:26:39;;;;;;;12.30;4.05;;;;;;;11.81;90.51;99004.75;1776814;80;20987;-79
2022/09/20 12:29:31;;;;;;;6.50;3.50;;;;;;;11.83;90.45;99008.16;1776479;80;21098;-79
2022/09/20 12:32:02;;;;;;;13.35;4.00;;;;;;;11.86;90.32;99008.49;1774255;80;20989;-80
2022/09/20 12:34:34;;;;;;;6.83;3.40;;;;;;;11.88;90.46;99003.55;1776690;80;21232;-81
2022/09/20 12:37:09;;;;;;;4.87;3.60;;;;;;;11.92;90.49;99002.97;1776797;80;21085;-79
2022/09/20 12:39:37;;;;;;;9.10;3.55;;;;;;;11.95;90.45;99002.79;1776689;80;21122;-80
2022/09/20 12:42:15;;;;;;;7.97;3.85;;;;;;;11.98;90.50;99001.80;1776571;80;21438;-79
2022/09/20 12:44:59;;;;;;;4.55;3.58;;;;;;;11.96;90.44;99004.98;1773670;80;21560;-80
2022/09/20 12:47:31;;;;;;;8.20;3.67;;;;;;;11.92;90.35;99003.41;1776923;80;22242;-79
2022/09/20 12:52:59;;;;;;;4.83;3.30;;;;;;;11.89;90.57;99007.03;1776243;80;21646;-79
2022/09/20 12:55:35;;;;;;;6.40;3.70;;;;;;;11.83;90.73;98996.30;1776508;80;21066;-78